Mule Creek, New Mexico
Current Conditions -  °F | °C
As of 5:51 AM on Saturday 25 Oct 2014 (Local Time) from KSAD Reporting Station
Clear Clear  
Wind Chill: 59°   Ceiling: Unl
Heat Index: 59°   Visibility: 10mi
Dew Point: 46°   Wind: 5mph
Humidity: 62%   Direction: 180°S
Pressure: 30.13"   Gusts: NA
Location:  33.12°N, 108.96°W
Report Text: KSAD 251151Z AUTO 18004KT 10SM CLR 15/08 A3013 RMK AO2 SLP163 T01500078 10183 20128 53001
Loading
Personal Weather Stations






























Interactive Weather Map
Tropical Storm Tracking
New forecast layout! Learn more

10-Day Weather Forecast

Advertisements
Track Severe Weather on mobile